createdAt,value
2023-05-14T00:01:02.497Z,4.60
2023-05-14T00:03:29.074Z,5.00
2023-05-14T00:05:55.711Z,6.00
2023-05-14T00:08:22.149Z,4.60
2023-05-14T00:10:50.426Z,7.00
2023-05-14T00:13:16.913Z,4.75
2023-05-14T00:15:43.546Z,4.00
2023-05-14T00:18:12.240Z,6.20
2023-05-14T00:20:38.808Z,6.00
2023-05-14T00:23:05.337Z,5.00
2023-05-14T00:25:31.827Z,6.40
2023-05-14T00:27:58.277Z,6.00
2023-05-14T00:30:24.836Z,6.25
2023-05-14T00:32:51.639Z,7.00
2023-05-14T00:35:18.420Z,7.00
2023-05-14T00:37:44.963Z,8.00
2023-05-14T00:40:13.136Z,8.20
2023-05-14T00:42:40.119Z,5.00
2023-05-14T00:45:07.206Z,8.00
2023-05-14T00:47:34.985Z,7.00
2023-05-14T00:50:02.622Z,8.40
2023-05-14T00:52:29.139Z,5.60
2023-05-14T00:54:56.162Z,5.00
2023-05-14T00:57:22.699Z,5.00
2023-05-14T00:59:49.551Z,6.60
2023-05-14T01:02:16.272Z,11.00
2023-05-14T01:04:42.936Z,6.40
2023-05-14T01:07:12.485Z,6.00
2023-05-14T01:09:44.568Z,5.00
2023-05-14T01:12:27.090Z,7.00
2023-05-14T01:15:09.255Z,5.00
2023-05-14T01:17:39.203Z,6.00
2023-05-14T01:20:06.262Z,6.25
2023-05-14T01:22:32.900Z,6.00
2023-05-14T01:24:59.368Z,5.00
2023-05-14T01:27:29.799Z,3.00
2023-05-14T01:30:03.084Z,4.80
2023-05-14T01:32:30.412Z,5.00
2023-05-14T01:34:58.526Z,5.60
2023-05-14T01:37:25.811Z,5.00
2023-05-14T01:39:52.583Z,8.00
2023-05-14T01:42:19.069Z,3.25
2023-05-14T01:44:45.496Z,6.00
2023-05-14T01:47:12.055Z,4.67
2023-05-14T01:49:38.509Z,8.00
2023-05-14T01:52:05.116Z,5.75
2023-05-14T01:54:31.698Z,8.50
2023-05-14T01:56:58.158Z,8.00
2023-05-14T01:59:24.640Z,10.00
2023-05-14T02:01:51.410Z,8.50
2023-05-14T02:04:18.172Z,6.80
2023-05-14T02:06:44.752Z,7.25
2023-05-14T02:09:13.697Z,5.00
2023-05-14T02:11:40.452Z,5.00
2023-05-14T02:14:06.959Z,10.20
2023-05-14T02:16:33.484Z,8.00
2023-05-14T02:19:00.068Z,6.00
2023-05-14T02:21:27.040Z,5.00
2023-05-14T02:23:53.464Z,11.25
2023-05-14T02:26:22.689Z,5.20
2023-05-14T02:28:51.985Z,7.80
2023-05-14T02:31:19.560Z,7.00
2023-05-14T02:33:46.110Z,8.00
2023-05-14T02:36:12.620Z,6.60
2023-05-14T02:38:39.116Z,7.00
2023-05-14T02:41:05.526Z,7.40
2023-05-14T02:43:31.993Z,6.40
2023-05-14T02:45:58.432Z,5.50
2023-05-14T02:48:24.856Z,6.00
2023-05-14T02:50:52.188Z,5.00
2023-05-14T02:53:18.662Z,6.00
2023-05-14T02:55:45.122Z,10.00
2023-05-14T02:58:11.660Z,6.40
2023-05-14T03:00:38.190Z,6.50
2023-05-14T03:03:05.154Z,7.00
2023-05-14T03:05:32.336Z,6.33
2023-05-14T03:07:58.822Z,6.00
2023-05-14T03:10:25.568Z,5.00
2023-05-14T03:12:52.283Z,7.60
2023-05-14T03:15:18.839Z,5.20
2023-05-14T03:17:45.372Z,6.20
2023-05-14T03:20:12.716Z,5.75
2023-05-14T03:22:39.262Z,5.80
2023-05-14T03:25:06.101Z,13.80
2023-05-14T03:27:33.695Z,7.00
2023-05-14T03:30:00.228Z,5.20
2023-05-14T03:32:26.757Z,6.80
2023-05-14T03:34:53.285Z,8.00
2023-05-14T03:37:22.507Z,7.00
2023-05-14T03:39:48.962Z,10.00
2023-05-14T03:42:15.473Z,7.00
2023-05-14T03:44:42.065Z,7.00
2023-05-14T03:47:08.539Z,7.00
2023-05-14T03:49:35.229Z,9.40
2023-05-14T03:52:01.679Z,6.50
2023-05-14T03:54:28.219Z,7.25
2023-05-14T03:56:54.688Z,9.00
2023-05-14T03:59:21.154Z,7.25
2023-05-14T04:01:47.678Z,6.80
2023-05-14T04:04:14.264Z,5.20
2023-05-14T04:06:40.901Z,7.00
2023-05-14T04:09:07.392Z,6.50
2023-05-14T04:11:33.847Z,6.00
2023-05-14T04:14:00.343Z,10.40
2023-05-14T04:16:26.825Z,5.75
2023-05-14T04:18:53.358Z,8.20
2023-05-14T04:21:22.835Z,6.20
2023-05-14T04:23:49.778Z,7.75
2023-05-14T04:26:16.435Z,8.40
2023-05-14T04:28:42.855Z,8.00
2023-05-14T04:31:09.290Z,7.00
2023-05-14T04:33:35.830Z,11.75
2023-05-14T04:36:02.328Z,8.00
2023-05-14T04:38:28.810Z,9.00
2023-05-14T04:40:55.221Z,8.00
2023-05-14T04:43:21.642Z,9.20
2023-05-14T04:45:48.082Z,6.25
2023-05-14T04:48:14.728Z,11.60
2023-05-14T04:50:41.207Z,8.75
2023-05-14T04:53:07.708Z,9.00
2023-05-14T04:55:34.120Z,10.60
2023-05-14T04:58:00.664Z,12.80
2023-05-14T05:00:27.378Z,12.00
2023-05-14T05:02:54.007Z,12.50
2023-05-14T05:05:20.777Z,10.00
2023-05-14T05:07:47.308Z,15.00
2023-05-14T05:10:13.768Z,11.00
2023-05-14T05:12:40.263Z,17.00
2023-05-14T05:15:07.198Z,16.50
2023-05-14T05:17:33.659Z,16.20
2023-05-14T05:20:00.305Z,13.00
2023-05-14T05:22:27.038Z,12.80
2023-05-14T05:24:53.682Z,12.00
2023-05-14T05:27:22.065Z,12.60
2023-05-14T05:29:48.584Z,11.00
2023-05-14T05:32:15.203Z,13.75
2023-05-14T05:34:41.756Z,10.80
2023-05-14T05:37:09.344Z,12.00
2023-05-14T05:39:35.834Z,15.80
2023-05-14T05:42:02.669Z,10.00
2023-05-14T05:44:29.313Z,11.00
2023-05-14T05:46:57.324Z,13.40
2023-05-14T05:49:24.014Z,14.00
2023-05-14T05:51:50.693Z,14.00
2023-05-14T05:54:17.223Z,15.00
2023-05-14T05:56:43.770Z,13.00
2023-05-14T05:59:10.358Z,11.60
2023-05-14T06:01:37.067Z,10.25
2023-05-14T06:04:05.664Z,9.40
2023-05-14T06:06:33.044Z,9.50
2023-05-14T06:08:59.642Z,11.00
2023-05-14T06:11:26.739Z,8.00
2023-05-14T06:13:53.288Z,11.00
2023-05-14T06:16:22.568Z,9.00
2023-05-14T06:18:49.507Z,11.75
2023-05-14T06:21:16.005Z,9.50
2023-05-14T06:23:42.466Z,9.00
2023-05-14T06:26:08.906Z,8.60
2023-05-14T06:28:35.666Z,8.00
2023-05-14T06:31:02.599Z,10.00
2023-05-14T06:33:32.032Z,7.00
2023-05-14T06:35:59.161Z,5.75
2023-05-14T06:38:25.862Z,6.00
2023-05-14T06:40:53.349Z,7.20
2023-05-14T06:43:22.397Z,5.40
2023-05-14T06:45:49.280Z,4.60
2023-05-14T06:48:16.488Z,6.50
2023-05-14T06:50:43.021Z,6.60
2023-05-14T06:53:09.515Z,4.00
2023-05-14T06:55:36.031Z,8.00
2023-05-14T06:58:02.623Z,6.25
2023-05-14T07:00:29.180Z,7.60
2023-05-14T07:02:55.752Z,7.00
2023-05-14T07:05:22.246Z,6.67
2023-05-14T07:07:48.713Z,5.80
2023-05-14T07:10:15.176Z,6.00
2023-05-14T07:12:41.833Z,7.40
2023-05-14T07:15:08.729Z,12.00
2023-05-14T07:17:35.442Z,6.20
2023-05-14T07:20:01.971Z,6.80
2023-05-14T07:22:28.413Z,4.60
2023-05-14T07:24:54.807Z,6.00
2023-05-14T07:27:21.337Z,5.00
2023-05-14T07:29:47.774Z,5.00
2023-05-14T07:32:15.581Z,5.20
2023-05-14T07:34:42.535Z,6.00
2023-05-14T07:37:08.996Z,5.75
2023-05-14T07:39:36.178Z,4.75
2023-05-14T07:42:02.682Z,5.00
2023-05-14T07:44:29.179Z,6.25
2023-05-14T07:46:55.724Z,5.25
2023-05-14T07:49:22.175Z,6.50
2023-05-14T07:51:48.674Z,4.75
2023-05-14T07:54:15.243Z,7.00
2023-05-14T07:56:41.887Z,7.60
2023-05-14T07:59:08.488Z,7.00
2023-05-14T08:01:35.390Z,6.00
2023-05-14T08:04:02.830Z,5.00
2023-05-14T08:06:29.670Z,6.60
2023-05-14T08:08:56.381Z,5.00
2023-05-14T08:11:22.947Z,5.00
2023-05-14T08:13:49.442Z,3.60
2023-05-14T08:16:16.245Z,2.60
2023-05-14T08:18:42.755Z,4.00
2023-05-14T08:21:09.237Z,5.25
2023-05-14T08:23:35.864Z,5.00
2023-05-14T08:26:02.956Z,5.00
2023-05-14T08:28:29.502Z,3.00
2023-05-14T08:30:56.047Z,4.00
2023-05-14T08:33:22.509Z,5.00
2023-05-14T08:35:50.600Z,3.20
2023-05-14T08:38:17.031Z,2.50
2023-05-14T08:40:47.304Z,3.00
2023-05-14T08:43:16.470Z,4.50
2023-05-14T08:45:43.516Z,2.40
2023-05-14T08:48:12.410Z,2.00
2023-05-14T08:50:39.081Z,3.00
2023-05-14T08:53:05.659Z,4.00
2023-05-14T08:55:33.747Z,4.40
2023-05-14T08:58:00.309Z,3.75
2023-05-14T09:00:27.116Z,4.50
2023-05-14T09:02:54.420Z,3.60
2023-05-14T09:05:21.532Z,3.60
2023-05-14T09:07:48.255Z,3.50
2023-05-14T09:10:15.752Z,2.20
2023-05-14T09:12:42.247Z,2.00
2023-05-14T09:15:08.785Z,4.00
2023-05-14T09:17:35.449Z,3.25
2023-05-14T09:20:02.093Z,4.00
2023-05-14T09:22:30.227Z,8.00
2023-05-14T09:25:07.024Z,4.33
2023-05-14T09:27:33.621Z,2.00
2023-05-14T09:30:10.369Z,4.00
2023-05-14T09:32:38.113Z,4.00
2023-05-14T09:35:17.209Z,3.00
2023-05-14T09:37:48.199Z,5.20
2023-05-14T09:40:15.181Z,4.00
2023-05-14T09:42:41.922Z,2.50
2023-05-14T09:45:09.633Z,2.50
2023-05-14T09:47:37.035Z,4.40
2023-05-14T09:50:04.011Z,3.00
2023-05-14T09:52:30.827Z,2.00
2023-05-14T09:54:57.304Z,5.00
2023-05-14T09:57:23.999Z,3.00
2023-05-14T09:59:50.540Z,3.00
2023-05-14T10:02:22.776Z,3.50
2023-05-14T10:04:51.435Z,3.60
2023-05-14T10:07:21.838Z,4.00
2023-05-14T10:09:48.510Z,4.00
2023-05-14T10:12:16.772Z,5.00
2023-05-14T10:14:49.599Z,4.00
2023-05-14T10:17:19.175Z,3.50
2023-05-14T10:19:54.009Z,3.00
2023-05-14T10:22:22.922Z,1.60
2023-05-14T10:24:54.798Z,4.00
2023-05-14T10:27:22.475Z,2.00
2023-05-14T10:29:55.742Z,3.00
2023-05-14T10:32:25.560Z,4.00
2023-05-14T10:34:55.213Z,5.00
2023-05-14T10:37:28.294Z,2.00
2023-05-14T10:39:55.165Z,2.00
2023-05-14T10:42:23.315Z,2.00
2023-05-14T10:45:05.866Z,1.75
2023-05-14T10:47:32.485Z,1.60
2023-05-14T10:49:59.951Z,2.50
2023-05-14T10:52:26.745Z,7.00
2023-05-14T10:54:56.789Z,2.25
2023-05-14T10:57:24.476Z,1.60
2023-05-14T10:59:54.899Z,2.40
2023-05-14T11:02:27.391Z,4.25
2023-05-14T11:04:59.214Z,2.40
2023-05-14T11:07:45.213Z,3.00
2023-05-14T11:10:13.330Z,3.00
2023-05-14T11:12:41.370Z,3.00
2023-05-14T11:15:11.839Z,2.40
2023-05-14T11:17:40.757Z,1.60
2023-05-14T11:20:08.089Z,4.60
2023-05-14T11:22:35.480Z,4.20
2023-05-14T11:25:02.104Z,3.00
2023-05-14T11:27:28.829Z,3.00
2023-05-14T11:29:56.087Z,2.25
2023-05-14T11:32:22.684Z,3.20
2023-05-14T11:34:49.347Z,2.75
2023-05-14T11:37:16.474Z,2.00
2023-05-14T11:39:53.585Z,3.00
2023-05-14T11:42:20.943Z,2.80
2023-05-14T11:44:49.097Z,3.00
2023-05-14T11:47:18.521Z,3.00
2023-05-14T11:49:45.514Z,2.80
2023-05-14T11:52:14.259Z,3.00
2023-05-14T11:54:44.067Z,3.00
2023-05-14T11:57:11.743Z,3.80
2023-05-14T11:59:38.599Z,2.60
2023-05-14T12:02:05.499Z,3.00
2023-05-14T12:04:32.246Z,4.00
2023-05-14T12:06:59.532Z,5.40
2023-05-14T12:09:26.120Z,4.00
2023-05-14T12:11:52.732Z,3.00
2023-05-14T12:14:21.012Z,3.00
2023-05-14T12:16:47.978Z,3.00
2023-05-14T12:19:15.848Z,3.60
2023-05-14T12:21:47.298Z,2.75
2023-05-14T12:24:15.791Z,4.00
2023-05-14T12:26:45.696Z,2.40
2023-05-14T12:29:13.880Z,2.00
2023-05-14T12:31:49.987Z,3.50
2023-05-14T12:34:17.152Z,4.00
2023-05-14T12:36:44.070Z,4.50
2023-05-14T12:39:11.270Z,6.00
2023-05-14T12:41:37.887Z,4.00
2023-05-14T12:44:05.054Z,4.00
2023-05-14T12:46:32.531Z,2.00
2023-05-14T12:48:58.995Z,3.25
2023-05-14T12:51:25.507Z,3.00
2023-05-14T12:53:54.099Z,3.00
2023-05-14T12:56:21.389Z,5.00
2023-05-14T12:58:48.033Z,2.25
2023-05-14T13:01:14.746Z,2.40
2023-05-14T13:03:41.646Z,1.00
2023-05-14T13:06:08.224Z,2.50
2023-05-14T13:08:35.269Z,2.00
2023-05-14T13:11:01.830Z,2.00
2023-05-14T13:13:28.312Z,3.00
2023-05-14T13:15:55.635Z,3.80
2023-05-14T13:18:22.103Z,2.50
2023-05-14T13:20:48.834Z,1.80
2023-05-14T13:23:15.394Z,1.20
2023-05-14T13:25:41.939Z,2.60
2023-05-14T13:28:08.579Z,1.60
2023-05-14T13:30:35.064Z,3.00
2023-05-14T13:33:01.559Z,2.60
2023-05-14T13:35:28.179Z,4.80
2023-05-14T13:37:54.651Z,2.80
2023-05-14T13:40:21.177Z,4.20
2023-05-14T13:42:47.672Z,4.00
2023-05-14T13:45:14.235Z,2.00
2023-05-14T13:47:41.371Z,4.00
2023-05-14T13:50:08.058Z,1.75
2023-05-14T13:52:34.548Z,3.00
2023-05-14T13:55:01.063Z,3.00
2023-05-14T13:57:27.509Z,2.40
2023-05-14T13:59:54.019Z,2.00
2023-05-14T14:02:20.553Z,3.00
2023-05-14T14:04:47.097Z,0.80
2023-05-14T14:07:13.530Z,4.00
2023-05-14T14:09:40.077Z,3.00
2023-05-14T14:12:06.856Z,2.00
2023-05-14T14:14:33.452Z,1.00
2023-05-14T14:16:59.937Z,3.00
2023-05-14T14:19:26.432Z,2.00
2023-05-14T14:21:53.278Z,6.50
2023-05-14T14:24:20.040Z,6.40
2023-05-14T14:26:46.513Z,4.00
2023-05-14T14:29:13.050Z,3.25
2023-05-14T14:31:39.589Z,1.80
2023-05-14T14:34:06.295Z,2.75
2023-05-14T14:36:32.786Z,2.50
2023-05-14T14:38:59.411Z,2.60
2023-05-14T14:41:26.766Z,6.20
2023-05-14T14:43:53.327Z,3.00
2023-05-14T14:46:22.540Z,2.00
2023-05-14T14:48:49.073Z,3.80
2023-05-14T14:51:15.546Z,5.00
2023-05-14T14:53:42.061Z,5.00
2023-05-14T14:56:08.529Z,2.80
2023-05-14T14:58:35.045Z,3.00
2023-05-14T15:01:01.703Z,3.00
2023-05-14T15:03:28.942Z,4.40
2023-05-14T15:05:55.666Z,2.00
2023-05-14T15:08:29.079Z,2.50
2023-05-14T15:10:59.428Z,3.00
2023-05-14T15:13:26.986Z,3.80
2023-05-14T15:15:53.554Z,3.40
2023-05-14T15:18:20.086Z,1.00
2023-05-14T15:20:46.674Z,1.50
2023-05-14T15:23:13.227Z,1.80
2023-05-14T15:25:39.724Z,2.00
2023-05-14T15:28:07.480Z,0.00
2023-05-14T15:30:34.165Z,2.00
2023-05-14T15:33:00.942Z,3.00
2023-05-14T15:35:27.435Z,2.00
2023-05-14T15:37:55.466Z,2.00
2023-05-14T15:40:22.073Z,2.00
2023-05-14T15:42:48.675Z,4.00
2023-05-14T15:45:15.163Z,3.00
2023-05-14T15:47:41.896Z,5.40
2023-05-14T15:50:09.366Z,5.00
2023-05-14T15:52:36.602Z,5.00
2023-05-14T15:55:04.488Z,5.75
2023-05-14T15:57:31.747Z,4.75
2023-05-14T15:59:58.278Z,6.00
2023-05-14T16:02:24.827Z,5.60
2023-05-14T16:04:51.352Z,6.00
2023-05-14T16:07:17.845Z,6.00
2023-05-14T16:09:44.335Z,4.80
2023-05-14T16:12:11.628Z,6.00
2023-05-14T16:14:39.473Z,4.20
2023-05-14T16:17:08.037Z,5.00
2023-05-14T16:19:34.516Z,6.25
2023-05-14T16:22:01.109Z,5.00
2023-05-14T16:24:27.633Z,5.00
2023-05-14T16:26:54.292Z,6.00
2023-05-14T16:29:20.827Z,6.80
2023-05-14T16:31:47.302Z,5.80
2023-05-14T16:34:14.063Z,6.75
2023-05-14T16:36:40.757Z,5.50
2023-05-14T16:39:08.618Z,5.00
2023-05-14T16:41:38.893Z,6.00
2023-05-14T16:44:05.938Z,10.75
2023-05-14T16:46:33.110Z,6.00
2023-05-14T16:48:59.681Z,6.00
2023-05-14T16:51:26.108Z,7.20
2023-05-14T16:53:54.620Z,7.00
2023-05-14T16:56:22.491Z,6.00
2023-05-14T16:58:49.007Z,5.20
2023-05-14T17:01:15.917Z,6.80
2023-05-14T17:03:43.539Z,6.00
2023-05-14T17:06:10.301Z,5.20
2023-05-14T17:08:36.951Z,7.40
2023-05-14T17:11:05.802Z,5.00
2023-05-14T17:13:33.106Z,5.50
2023-05-14T17:15:59.996Z,5.00
2023-05-14T17:18:26.875Z,5.40
2023-05-14T17:20:53.457Z,5.40
2023-05-14T17:23:20.470Z,6.00
2023-05-14T17:25:47.040Z,5.40
2023-05-14T17:28:13.592Z,5.50
2023-05-14T17:30:40.313Z,6.00
2023-05-14T17:33:06.931Z,5.20
2023-05-14T17:35:36.267Z,6.40
2023-05-14T17:38:03.338Z,8.00
2023-05-14T17:40:29.865Z,4.80
2023-05-14T17:42:56.528Z,5.25
2023-05-14T17:45:24.209Z,5.00
2023-05-14T17:47:51.551Z,3.25
2023-05-14T17:50:18.697Z,6.00
2023-05-14T17:52:46.413Z,4.00
2023-05-14T17:55:13.104Z,5.00
2023-05-14T17:57:39.959Z,5.00
2023-05-14T18:00:06.790Z,5.20
2023-05-14T18:02:33.317Z,5.00
2023-05-14T18:05:00.557Z,6.00
2023-05-14T18:07:27.056Z,7.00
2023-05-14T18:09:53.537Z,4.80
2023-05-14T18:12:21.152Z,5.00
2023-05-14T18:14:47.685Z,5.00
2023-05-14T18:17:14.213Z,6.00
2023-05-14T18:19:43.593Z,6.00
2023-05-14T18:22:11.240Z,4.25
2023-05-14T18:24:37.766Z,6.25
2023-05-14T18:27:04.396Z,5.00
2023-05-14T18:29:30.884Z,5.00
2023-05-14T18:31:57.358Z,5.00
2023-05-14T18:34:23.890Z,5.00
2023-05-14T18:36:51.003Z,5.00
2023-05-14T18:39:17.541Z,6.00
2023-05-14T18:41:44.048Z,4.00
2023-05-14T18:44:10.885Z,4.00
2023-05-14T18:46:37.620Z,6.60
2023-05-14T18:49:04.252Z,5.60
2023-05-14T18:51:30.715Z,6.00
2023-05-14T18:54:04.398Z,6.00
2023-05-14T18:56:30.925Z,5.20
2023-05-14T18:58:57.670Z,6.00
2023-05-14T19:01:25.872Z,5.50
2023-05-14T19:03:53.145Z,4.00
2023-05-14T19:06:19.989Z,8.50
2023-05-14T19:08:46.556Z,5.40
2023-05-14T19:11:13.530Z,6.00
2023-05-14T19:13:40.151Z,4.50
2023-05-14T19:16:06.790Z,6.00
2023-05-14T19:18:33.533Z,6.00
2023-05-14T19:21:01.428Z,5.50
2023-05-14T19:23:27.989Z,4.00
2023-05-14T19:25:54.506Z,4.00
2023-05-14T19:28:21.304Z,4.40
2023-05-14T19:30:47.926Z,4.25
2023-05-14T19:33:14.424Z,4.00
2023-05-14T19:35:41.073Z,4.80
2023-05-14T19:38:09.243Z,4.00
2023-05-14T19:40:35.866Z,5.00
2023-05-14T19:43:02.421Z,4.00
2023-05-14T19:45:28.966Z,4.20
2023-05-14T19:47:55.650Z,4.00
2023-05-14T19:50:22.207Z,5.00
2023-05-14T19:52:48.817Z,4.20
2023-05-14T19:55:15.322Z,6.00
2023-05-14T19:57:41.986Z,3.80
2023-05-14T20:00:09.117Z,4.00
2023-05-14T20:02:35.741Z,6.00
2023-05-14T20:05:02.280Z,3.80
2023-05-14T20:07:29.439Z,6.00
2023-05-14T20:09:55.980Z,5.00
2023-05-14T20:12:22.446Z,6.25
2023-05-14T20:14:48.915Z,4.80
2023-05-14T20:17:15.571Z,4.00
2023-05-14T20:19:43.858Z,3.80
2023-05-14T20:22:10.456Z,4.00
2023-05-14T20:24:36.995Z,3.40
2023-05-14T20:27:03.659Z,4.40
2023-05-14T20:29:30.199Z,5.00
2023-05-14T20:31:57.013Z,7.20
2023-05-14T20:34:23.490Z,4.00
2023-05-14T20:36:51.012Z,4.00
2023-05-14T20:39:18.334Z,4.25
2023-05-14T20:41:45.791Z,5.00
2023-05-14T20:44:12.307Z,4.25
2023-05-14T20:46:38.981Z,5.00
2023-05-14T20:49:05.520Z,4.00
2023-05-14T20:51:32.722Z,4.00
2023-05-14T20:53:59.201Z,5.80
2023-05-14T20:56:26.572Z,3.00
2023-05-14T20:58:53.075Z,3.00
2023-05-14T21:01:22.222Z,5.00
2023-05-14T21:03:51.503Z,4.80
2023-05-14T21:06:18.173Z,4.00
2023-05-14T21:08:44.743Z,6.60
2023-05-14T21:11:11.245Z,4.00
2023-05-14T21:13:37.807Z,4.00
2023-05-14T21:16:04.451Z,5.00
2023-05-14T21:18:32.901Z,5.80
2023-05-14T21:20:59.478Z,6.00
2023-05-14T21:23:26.010Z,3.20
2023-05-14T21:25:54.796Z,3.20
2023-05-14T21:28:22.176Z,6.00
2023-05-14T21:30:53.016Z,3.60
2023-05-14T21:33:19.692Z,4.00
2023-05-14T21:35:46.228Z,4.50
2023-05-14T21:38:12.775Z,7.80
2023-05-14T21:40:39.295Z,3.50
2023-05-14T21:43:05.773Z,3.00
2023-05-14T21:45:32.474Z,6.00
2023-05-14T21:47:59.078Z,7.00
2023-05-14T21:50:25.608Z,4.80
2023-05-14T21:52:52.086Z,3.80
2023-05-14T21:55:18.828Z,5.00
2023-05-14T21:57:45.414Z,4.00
2023-05-14T22:00:13.394Z,5.00
2023-05-14T22:02:39.950Z,6.00
2023-05-14T22:05:06.630Z,6.00
2023-05-14T22:07:33.229Z,5.00
2023-05-14T22:09:59.944Z,12.25
2023-05-14T22:12:26.884Z,6.00
2023-05-14T22:14:53.395Z,6.00
2023-05-14T22:17:22.962Z,5.00
2023-05-14T22:19:50.452Z,4.40
2023-05-14T22:22:16.960Z,5.00
2023-05-14T22:24:43.423Z,6.00
2023-05-14T22:27:09.857Z,5.60
2023-05-14T22:29:38.202Z,6.50
2023-05-14T22:32:07.593Z,6.00
2023-05-14T22:34:34.063Z,5.00
2023-05-14T22:37:00.519Z,5.40
2023-05-14T22:39:27.062Z,5.60
2023-05-14T22:41:55.302Z,6.00
2023-05-14T22:44:22.202Z,4.75
2023-05-14T22:46:48.946Z,5.00
2023-05-14T22:49:15.591Z,7.50
2023-05-14T22:51:42.470Z,5.00
2023-05-14T22:54:11.014Z,7.40
2023-05-14T22:56:37.810Z,6.75
2023-05-14T22:59:04.592Z,5.00
2023-05-14T23:01:31.666Z,4.40
2023-05-14T23:03:58.197Z,5.40
2023-05-14T23:06:25.075Z,5.00
2023-05-14T23:08:51.522Z,6.00
2023-05-14T23:11:18.359Z,5.40
2023-05-14T23:13:45.051Z,6.00
2023-05-14T23:16:11.510Z,5.75
2023-05-14T23:18:38.271Z,6.25
2023-05-14T23:21:04.884Z,5.00
2023-05-14T23:23:31.391Z,4.75
2023-05-14T23:25:57.933Z,4.00
2023-05-14T23:28:24.416Z,8.00
2023-05-14T23:30:50.942Z,6.25
2023-05-14T23:33:17.453Z,5.40
2023-05-14T23:35:44.264Z,7.00
2023-05-14T23:38:10.806Z,7.40
2023-05-14T23:40:37.378Z,5.00
2023-05-14T23:43:03.994Z,5.40
2023-05-14T23:45:30.943Z,7.40
2023-05-14T23:47:57.827Z,6.60
2023-05-14T23:50:24.621Z,6.40
2023-05-14T23:52:55.000Z,6.60
2023-05-14T23:55:21.707Z,6.25
2023-05-14T23:57:51.236Z,7.20
